sensor_id;sensor_type;location;lat;lon;timestamp;temperature;humidity
3792;DHT22;1911;53.768;11.474;2023-11-21T00:01:18;6.20;99.90
3792;DHT22;1911;53.768;11.474;2023-11-21T00:03:43;6.10;99.90
3792;DHT22;1911;53.768;11.474;2023-11-21T00:06:09;6.10;99.90
3792;DHT22;1911;53.768;11.474;2023-11-21T00:08:36;6.10;99.90
3792;DHT22;1911;53.768;11.474;2023-11-21T00:11:02;6.10;99.90
3792;DHT22;1911;53.768;11.474;2023-11-21T00:13:28;6.10;99.90
3792;DHT22;1911;53.768;11.474;2023-11-21T00:15:53;6.10;99.90
3792;DHT22;1911;53.768;11.474;2023-11-21T00:18:21;6.10;99.90
3792;DHT22;1911;53.768;11.474;2023-11-21T00:20:46;6.10;99.90
3792;DHT22;1911;53.768;11.474;2023-11-21T00:23:12;6.10;99.90
3792;DHT22;1911;53.768;11.474;2023-11-21T00:25:37;6.10;99.90
3792;DHT22;1911;53.768;11.474;2023-11-21T00:28:03;6.10;99.90
3792;DHT22;1911;53.768;11.474;2023-11-21T00:30:30;6.10;99.90
3792;DHT22;1911;53.768;11.474;2023-11-21T00:32:56;6.10;99.90
3792;DHT22;1911;53.768;11.474;2023-11-21T00:35:22;6.10;99.90
3792;DHT22;1911;53.768;11.474;2023-11-21T00:37:47;6.10;99.90
3792;DHT22;1911;53.768;11.474;2023-11-21T00:40:15;6.10;99.90
3792;DHT22;1911;53.768;11.474;2023-11-21T00:42:41;6.10;99.90
3792;DHT22;1911;53.768;11.474;2023-11-21T00:45:07;6.10;99.90
3792;DHT22;1911;53.768;11.474;2023-11-21T00:47:33;6.10;99.90
3792;DHT22;1911;53.768;11.474;2023-11-21T00:49:59;6.10;99.90
3792;DHT22;1911;53.768;11.474;2023-11-21T00:52:25;6.10;99.90
3792;DHT22;1911;53.768;11.474;2023-11-21T00:54:50;6.10;99.90
3792;DHT22;1911;53.768;11.474;2023-11-21T00:57:16;6.10;99.90
3792;DHT22;1911;53.768;11.474;2023-11-21T00:59:42;6.10;99.90
3792;DHT22;1911;53.768;11.474;2023-11-21T01:02:07;6.10;99.90
3792;DHT22;1911;53.768;11.474;2023-11-21T01:04:36;6.10;99.90
3792;DHT22;1911;53.768;11.474;2023-11-21T01:07:01;6.10;99.90
3792;DHT22;1911;53.768;11.474;2023-11-21T01:09:27;6.10;99.90
3792;DHT22;1911;53.768;11.474;2023-11-21T01:11:53;6.00;99.90
3792;DHT22;1911;53.768;11.474;2023-11-21T01:14:19;6.00;99.90
3792;DHT22;1911;53.768;11.474;2023-11-21T01:16:44;6.00;99.90
3792;DHT22;1911;53.768;11.474;2023-11-21T01:19:11;6.00;99.90
3792;DHT22;1911;53.768;11.474;2023-11-21T01:21:36;6.00;99.90
3792;DHT22;1911;53.768;11.474;2023-11-21T01:24:02;6.00;99.90
3792;DHT22;1911;53.768;11.474;2023-11-21T01:26:28;5.90;99.90
3792;DHT22;1911;53.768;11.474;2023-11-21T01:28:54;5.90;99.90
3792;DHT22;1911;53.768;11.474;2023-11-21T01:31:20;5.90;99.90
3792;DHT22;1911;53.768;11.474;2023-11-21T01:33:46;5.90;99.90
3792;DHT22;1911;53.768;11.474;2023-11-21T01:36:12;5.90;99.90
3792;DHT22;1911;53.768;11.474;2023-11-21T01:38:37;5.80;99.90
3792;DHT22;1911;53.768;11.474;2023-11-21T01:41:03;5.70;99.90
3792;DHT22;1911;53.768;11.474;2023-11-21T01:43:30;5.70;99.90
3792;DHT22;1911;53.768;11.474;2023-11-21T01:45:57;5.70;99.90
3792;DHT22;1911;53.768;11.474;2023-11-21T01:48:24;5.70;99.90
3792;DHT22;1911;53.768;11.474;2023-11-21T01:50:51;5.60;99.90
3792;DHT22;1911;53.768;11.474;2023-11-21T01:53:17;5.60;99.90
3792;DHT22;1911;53.768;11.474;2023-11-21T01:55:45;5.60;99.90
3792;DHT22;1911;53.768;11.474;2023-11-21T01:58:12;5.60;99.90
3792;DHT22;1911;53.768;11.474;2023-11-21T02:00:42;5.60;99.90
3792;DHT22;1911;53.768;11.474;2023-11-21T02:03:09;5.60;99.90
3792;DHT22;1911;53.768;11.474;2023-11-21T02:05:37;5.60;99.90
3792;DHT22;1911;53.768;11.474;2023-11-21T02:08:03;5.50;99.90
3792;DHT22;1911;53.768;11.474;2023-11-21T02:10:30;5.50;99.90
3792;DHT22;1911;53.768;11.474;2023-11-21T02:12:56;5.60;99.90
3792;DHT22;1911;53.768;11.474;2023-11-21T02:15:23;5.50;99.90
3792;DHT22;1911;53.768;11.474;2023-11-21T02:17:52;5.50;99.90
3792;DHT22;1911;53.768;11.474;2023-11-21T02:20:22;5.50;99.90
3792;DHT22;1911;53.768;11.474;2023-11-21T02:22:50;5.50;99.90
3792;DHT22;1911;53.768;11.474;2023-11-21T02:25:34;5.40;99.90
3792;DHT22;1911;53.768;11.474;2023-11-21T02:28:03;5.40;99.90
3792;DHT22;1911;53.768;11.474;2023-11-21T02:30:29;5.40;99.90
3792;DHT22;1911;53.768;11.474;2023-11-21T02:32:57;5.50;99.90
3792;DHT22;1911;53.768;11.474;2023-11-21T02:35:23;5.50;99.90
3792;DHT22;1911;53.768;11.474;2023-11-21T02:37:49;5.50;99.90
3792;DHT22;1911;53.768;11.474;2023-11-21T02:40:15;5.50;99.90
3792;DHT22;1911;53.768;11.474;2023-11-21T02:42:44;5.40;99.90
3792;DHT22;1911;53.768;11.474;2023-11-21T02:45:10;5.40;99.90
3792;DHT22;1911;53.768;11.474;2023-11-21T02:47:44;5.40;99.90
3792;DHT22;1911;53.768;11.474;2023-11-21T02:50:10;5.40;99.90
3792;DHT22;1911;53.768;11.474;2023-11-21T02:52:36;5.40;99.90
3792;DHT22;1911;53.768;11.474;2023-11-21T02:55:03;5.40;99.90
3792;DHT22;1911;53.768;11.474;2023-11-21T02:57:28;5.40;99.90
3792;DHT22;1911;53.768;11.474;2023-11-21T02:59:54;5.40;99.90
3792;DHT22;1911;53.768;11.474;2023-11-21T03:02:20;5.40;99.90
3792;DHT22;1911;53.768;11.474;2023-11-21T03:04:46;5.40;99.90
3792;DHT22;1911;53.768;11.474;2023-11-21T03:07:13;5.40;99.90
3792;DHT22;1911;53.768;11.474;2023-11-21T03:09:39;5.40;99.90
3792;DHT22;1911;53.768;11.474;2023-11-21T03:12:05;5.30;99.90
3792;DHT22;1911;53.768;11.474;2023-11-21T03:14:31;5.40;99.90
3792;DHT22;1911;53.768;11.474;2023-11-21T03:16:57;5.40;99.90
3792;DHT22;1911;53.768;11.474;2023-11-21T03:19:23;5.40;99.90
3792;DHT22;1911;53.768;11.474;2023-11-21T03:21:49;5.40;99.90
3792;DHT22;1911;53.768;11.474;2023-11-21T03:24:14;5.40;99.90
3792;DHT22;1911;53.768;11.474;2023-11-21T03:26:44;5.40;99.90
3792;DHT22;1911;53.768;11.474;2023-11-21T03:29:10;5.40;99.90
3792;DHT22;1911;53.768;11.474;2023-11-21T03:31:36;5.30;99.90
3792;DHT22;1911;53.768;11.474;2023-11-21T03:34:01;5.40;99.90
3792;DHT22;1911;53.768;11.474;2023-11-21T03:36:27;5.40;99.90
3792;DHT22;1911;53.768;11.474;2023-11-21T03:38:53;5.30;99.90
3792;DHT22;1911;53.768;11.474;2023-11-21T03:41:19;5.30;99.90
3792;DHT22;1911;53.768;11.474;2023-11-21T03:43:44;5.30;99.90
3792;DHT22;1911;53.768;11.474;2023-11-21T03:46:10;5.30;99.90
3792;DHT22;1911;53.768;11.474;2023-11-21T03:48:36;5.30;99.90
3792;DHT22;1911;53.768;11.474;2023-11-21T03:51:01;5.30;99.90
3792;DHT22;1911;53.768;11.474;2023-11-21T03:53:27;5.20;99.90
3792;DHT22;1911;53.768;11.474;2023-11-21T03:55:52;5.30;99.90
3792;DHT22;1911;53.768;11.474;2023-11-21T03:58:18;5.30;99.90
3792;DHT22;1911;53.768;11.474;2023-11-21T04:00:44;5.20;99.90
3792;DHT22;1911;53.768;11.474;2023-11-21T04:03:09;5.20;99.90
3792;DHT22;1911;53.768;11.474;2023-11-21T04:05:35;5.30;99.90
3792;DHT22;1911;53.768;11.474;2023-11-21T04:08:01;5.20;99.90
3792;DHT22;1911;53.768;11.474;2023-11-21T04:10:26;5.20;99.90
3792;DHT22;1911;53.768;11.474;2023-11-21T04:12:52;5.20;99.90
3792;DHT22;1911;53.768;11.474;2023-11-21T04:15:18;5.20;99.90
3792;DHT22;1911;53.768;11.474;2023-11-21T04:17:43;5.20;99.90
3792;DHT22;1911;53.768;11.474;2023-11-21T04:20:11;5.20;99.90
3792;DHT22;1911;53.768;11.474;2023-11-21T04:22:40;5.20;99.90
3792;DHT22;1911;53.768;11.474;2023-11-21T04:25:13;5.20;99.90
3792;DHT22;1911;53.768;11.474;2023-11-21T04:27:40;5.30;99.90
3792;DHT22;1911;53.768;11.474;2023-11-21T04:30:06;5.20;99.90
3792;DHT22;1911;53.768;11.474;2023-11-21T04:32:33;5.30;99.90
3792;DHT22;1911;53.768;11.474;2023-11-21T04:34:58;5.30;99.90
3792;DHT22;1911;53.768;11.474;2023-11-21T04:37:24;5.30;99.90
3792;DHT22;1911;53.768;11.474;2023-11-21T04:39:50;5.30;99.90
3792;DHT22;1911;53.768;11.474;2023-11-21T04:42:15;5.30;99.90
3792;DHT22;1911;53.768;11.474;2023-11-21T04:44:41;5.40;99.90
3792;DHT22;1911;53.768;11.474;2023-11-21T04:47:07;5.40;99.90
3792;DHT22;1911;53.768;11.474;2023-11-21T04:49:33;5.40;99.90
3792;DHT22;1911;53.768;11.474;2023-11-21T04:51:59;5.40;99.90
3792;DHT22;1911;53.768;11.474;2023-11-21T04:54:25;5.40;99.90
3792;DHT22;1911;53.768;11.474;2023-11-21T04:56:50;5.40;99.90
3792;DHT22;1911;53.768;11.474;2023-11-21T04:59:16;5.40;99.90
3792;DHT22;1911;53.768;11.474;2023-11-21T05:01:42;5.40;99.90
3792;DHT22;1911;53.768;11.474;2023-11-21T05:04:07;5.40;99.90
3792;DHT22;1911;53.768;11.474;2023-11-21T05:06:34;5.40;99.90
3792;DHT22;1911;53.768;11.474;2023-11-21T05:09:00;5.30;99.90
3792;DHT22;1911;53.768;11.474;2023-11-21T05:11:26;5.30;99.90
3792;DHT22;1911;53.768;11.474;2023-11-21T05:13:52;5.30;99.90
3792;DHT22;1911;53.768;11.474;2023-11-21T05:16:19;5.30;99.90
3792;DHT22;1911;53.768;11.474;2023-11-21T05:18:45;5.30;99.90
3792;DHT22;1911;53.768;11.474;2023-11-21T05:21:11;5.30;99.90
3792;DHT22;1911;53.768;11.474;2023-11-21T05:23:37;5.40;99.90
3792;DHT22;1911;53.768;11.474;2023-11-21T05:26:03;5.30;99.90
3792;DHT22;1911;53.768;11.474;2023-11-21T05:28:29;5.30;99.90
3792;DHT22;1911;53.768;11.474;2023-11-21T05:30:54;5.30;99.90
3792;DHT22;1911;53.768;11.474;2023-11-21T05:33:21;5.30;99.90
3792;DHT22;1911;53.768;11.474;2023-11-21T05:35:46;5.30;99.90
3792;DHT22;1911;53.768;11.474;2023-11-21T05:38:14;5.30;99.90
3792;DHT22;1911;53.768;11.474;2023-11-21T05:40:39;5.30;99.90
3792;DHT22;1911;53.768;11.474;2023-11-21T05:43:06;5.30;99.90
3792;DHT22;1911;53.768;11.474;2023-11-21T05:45:32;5.20;99.90
3792;DHT22;1911;53.768;11.474;2023-11-21T05:47:58;5.20;99.90
3792;DHT22;1911;53.768;11.474;2023-11-21T05:50:24;5.20;99.90
3792;DHT22;1911;53.768;11.474;2023-11-21T05:52:50;5.20;99.90
3792;DHT22;1911;53.768;11.474;2023-11-21T05:55:16;5.20;99.90
3792;DHT22;1911;53.768;11.474;2023-11-21T05:57:43;5.10;99.90
3792;DHT22;1911;53.768;11.474;2023-11-21T06:00:13;5.20;99.90
3792;DHT22;1911;53.768;11.474;2023-11-21T06:02:54;5.20;99.90
3792;DHT22;1911;53.768;11.474;2023-11-21T06:05:22;5.10;99.90
3792;DHT22;1911;53.768;11.474;2023-11-21T06:07:52;5.20;99.90
3792;DHT22;1911;53.768;11.474;2023-11-21T06:10:20;5.10;99.90
3792;DHT22;1911;53.768;11.474;2023-11-21T06:12:46;5.10;99.90
3792;DHT22;1911;53.768;11.474;2023-11-21T06:15:12;5.10;99.90
3792;DHT22;1911;53.768;11.474;2023-11-21T06:17:41;5.10;99.90
3792;DHT22;1911;53.768;11.474;2023-11-21T06:20:09;5.10;99.90
3792;DHT22;1911;53.768;11.474;2023-11-21T06:22:39;5.10;99.90
3792;DHT22;1911;53.768;11.474;2023-11-21T06:25:06;5.10;99.90
3792;DHT22;1911;53.768;11.474;2023-11-21T06:27:39;5.10;99.90
3792;DHT22;1911;53.768;11.474;2023-11-21T06:30:05;5.10;99.90
3792;DHT22;1911;53.768;11.474;2023-11-21T06:32:32;5.10;99.90
3792;DHT22;1911;53.768;11.474;2023-11-21T06:34:58;5.10;99.90
3792;DHT22;1911;53.768;11.474;2023-11-21T06:37:27;5.10;99.90
3792;DHT22;1911;53.768;11.474;2023-11-21T06:39:53;5.10;99.90
3792;DHT22;1911;53.768;11.474;2023-11-21T06:42:19;5.10;99.90
3792;DHT22;1911;53.768;11.474;2023-11-21T06:44:46;5.10;99.90
3792;DHT22;1911;53.768;11.474;2023-11-21T06:47:12;5.10;99.90
3792;DHT22;1911;53.768;11.474;2023-11-21T06:49:38;5.10;99.90
3792;DHT22;1911;53.768;11.474;2023-11-21T06:52:04;5.10;99.90
3792;DHT22;1911;53.768;11.474;2023-11-21T06:54:31;5.10;99.90
3792;DHT22;1911;53.768;11.474;2023-11-21T06:56:58;5.10;99.90
3792;DHT22;1911;53.768;11.474;2023-11-21T06:59:23;5.00;99.90
3792;DHT22;1911;53.768;11.474;2023-11-21T07:01:50;5.10;99.90
3792;DHT22;1911;53.768;11.474;2023-11-21T07:04:16;5.00;99.90
3792;DHT22;1911;53.768;11.474;2023-11-21T07:06:41;5.10;99.90
3792;DHT22;1911;53.768;11.474;2023-11-21T07:09:09;5.00;99.90
3792;DHT22;1911;53.768;11.474;2023-11-21T07:11:37;5.10;99.90
3792;DHT22;1911;53.768;11.474;2023-11-21T07:14:04;5.00;99.90
3792;DHT22;1911;53.768;11.474;2023-11-21T07:16:36;5.00;99.90
3792;DHT22;1911;53.768;11.474;2023-11-21T07:19:04;5.00;99.90
3792;DHT22;1911;53.768;11.474;2023-11-21T07:21:32;5.00;99.90
3792;DHT22;1911;53.768;11.474;2023-11-21T07:23:58;5.10;99.90
3792;DHT22;1911;53.768;11.474;2023-11-21T07:26:24;5.10;99.90
3792;DHT22;1911;53.768;11.474;2023-11-21T07:28:51;5.10;99.90
3792;DHT22;1911;53.768;11.474;2023-11-21T07:31:17;5.10;99.90
3792;DHT22;1911;53.768;11.474;2023-11-21T07:33:43;5.10;99.90
3792;DHT22;1911;53.768;11.474;2023-11-21T07:36:08;5.10;99.90
3792;DHT22;1911;53.768;11.474;2023-11-21T07:38:35;5.10;99.90
3792;DHT22;1911;53.768;11.474;2023-11-21T07:41:01;5.20;99.90
3792;DHT22;1911;53.768;11.474;2023-11-21T07:43:27;5.20;99.90
3792;DHT22;1911;53.768;11.474;2023-11-21T07:45:55;5.20;99.90
3792;DHT22;1911;53.768;11.474;2023-11-21T07:48:20;5.30;99.90
3792;DHT22;1911;53.768;11.474;2023-11-21T07:50:46;5.30;99.90
3792;DHT22;1911;53.768;11.474;2023-11-21T07:53:13;5.30;99.90
3792;DHT22;1911;53.768;11.474;2023-11-21T07:55:39;5.30;99.90
3792;DHT22;1911;53.768;11.474;2023-11-21T07:58:05;5.30;99.90
3792;DHT22;1911;53.768;11.474;2023-11-21T08:00:31;5.40;99.90
3792;DHT22;1911;53.768;11.474;2023-11-21T08:02:56;5.30;99.90
3792;DHT22;1911;53.768;11.474;2023-11-21T08:05:22;5.40;99.90
3792;DHT22;1911;53.768;11.474;2023-11-21T08:07:48;5.40;99.90
3792;DHT22;1911;53.768;11.474;2023-11-21T08:10:13;5.50;99.90
3792;DHT22;1911;53.768;11.474;2023-11-21T08:12:39;5.50;99.90
3792;DHT22;1911;53.768;11.474;2023-11-21T08:15:05;5.50;99.90
3792;DHT22;1911;53.768;11.474;2023-11-21T08:17:31;5.50;99.90
3792;DHT22;1911;53.768;11.474;2023-11-21T08:19:58;5.50;99.90
3792;DHT22;1911;53.768;11.474;2023-11-21T08:22:24;5.50;99.90
3792;DHT22;1911;53.768;11.474;2023-11-21T08:24:50;5.60;99.90
3792;DHT22;1911;53.768;11.474;2023-11-21T08:27:16;5.60;99.90
3792;DHT22;1911;53.768;11.474;2023-11-21T08:29:42;5.60;99.90
3792;DHT22;1911;53.768;11.474;2023-11-21T08:32:08;5.70;99.90
3792;DHT22;1911;53.768;11.474;2023-11-21T08:34:34;5.60;99.90
3792;DHT22;1911;53.768;11.474;2023-11-21T08:36:59;5.60;99.90
3792;DHT22;1911;53.768;11.474;2023-11-21T08:39:25;5.60;99.90
3792;DHT22;1911;53.768;11.474;2023-11-21T08:41:52;5.60;99.90
3792;DHT22;1911;53.768;11.474;2023-11-21T08:44:17;5.70;99.90
3792;DHT22;1911;53.768;11.474;2023-11-21T08:46:44;5.70;99.90
3792;DHT22;1911;53.768;11.474;2023-11-21T08:49:11;5.80;99.90
3792;DHT22;1911;53.768;11.474;2023-11-21T08:51:38;5.80;99.90
3792;DHT22;1911;53.768;11.474;2023-11-21T08:54:04;5.70;99.90
3792;DHT22;1911;53.768;11.474;2023-11-21T08:56:33;5.70;99.90
3792;DHT22;1911;53.768;11.474;2023-11-21T08:58:59;5.70;99.90
3792;DHT22;1911;53.768;11.474;2023-11-21T09:01:31;5.80;99.90
3792;DHT22;1911;53.768;11.474;2023-11-21T09:03:58;5.80;99.90
3792;DHT22;1911;53.768;11.474;2023-11-21T09:06:24;5.80;99.90
3792;DHT22;1911;53.768;11.474;2023-11-21T09:08:50;5.70;99.90
3792;DHT22;1911;53.768;11.474;2023-11-21T09:11:16;5.70;99.90
3792;DHT22;1911;53.768;11.474;2023-11-21T09:13:42;5.80;99.90
3792;DHT22;1911;53.768;11.474;2023-11-21T09:16:08;5.90;99.90
3792;DHT22;1911;53.768;11.474;2023-11-21T09:18:34;5.90;99.90
3792;DHT22;1911;53.768;11.474;2023-11-21T09:20:59;5.80;99.90
3792;DHT22;1911;53.768;11.474;2023-11-21T09:23:25;5.80;99.90
3792;DHT22;1911;53.768;11.474;2023-11-21T09:25:50;5.80;99.90
3792;DHT22;1911;53.768;11.474;2023-11-21T09:28:17;5.90;99.90
3792;DHT22;1911;53.768;11.474;2023-11-21T09:30:43;5.90;99.90
3792;DHT22;1911;53.768;11.474;2023-11-21T09:33:09;5.80;99.90
3792;DHT22;1911;53.768;11.474;2023-11-21T09:35:38;5.90;99.90
3792;DHT22;1911;53.768;11.474;2023-11-21T09:38:04;5.90;99.90
3792;DHT22;1911;53.768;11.474;2023-11-21T09:40:35;5.90;99.90
3792;DHT22;1911;53.768;11.474;2023-11-21T09:43:06;5.90;99.90
3792;DHT22;1911;53.768;11.474;2023-11-21T09:45:39;5.90;99.90
3792;DHT22;1911;53.768;11.474;2023-11-21T09:48:05;6.00;99.90
3792;DHT22;1911;53.768;11.474;2023-11-21T09:50:32;6.00;99.90
3792;DHT22;1911;53.768;11.474;2023-11-21T09:55:36;6.00;99.90
3792;DHT22;1911;53.768;11.474;2023-11-21T09:58:06;6.00;99.90
3792;DHT22;1911;53.768;11.474;2023-11-21T10:00:39;6.10;99.90
3792;DHT22;1911;53.768;11.474;2023-11-21T10:03:05;6.00;99.90
3792;DHT22;1911;53.768;11.474;2023-11-21T10:05:31;6.10;99.90
3792;DHT22;1911;53.768;11.474;2023-11-21T10:07:59;6.10;99.90
3792;DHT22;1911;53.768;11.474;2023-11-21T10:10:27;6.10;99.90
3792;DHT22;1911;53.768;11.474;2023-11-21T10:12:56;6.10;99.90
3792;DHT22;1911;53.768;11.474;2023-11-21T10:15:23;6.10;99.90
3792;DHT22;1911;53.768;11.474;2023-11-21T10:17:52;6.20;99.90
3792;DHT22;1911;53.768;11.474;2023-11-21T10:20:20;6.20;99.90
3792;DHT22;1911;53.768;11.474;2023-11-21T10:22:46;6.20;99.90
3792;DHT22;1911;53.768;11.474;2023-11-21T10:25:12;6.20;99.90
3792;DHT22;1911;53.768;11.474;2023-11-21T10:27:40;6.20;99.90
3792;DHT22;1911;53.768;11.474;2023-11-21T10:30:07;6.20;99.90
3792;DHT22;1911;53.768;11.474;2023-11-21T10:32:38;6.20;99.90
3792;DHT22;1911;53.768;11.474;2023-11-21T10:35:06;6.20;99.90
3792;DHT22;1911;53.768;11.474;2023-11-21T10:37:39;6.30;99.90
3792;DHT22;1911;53.768;11.474;2023-11-21T10:40:09;6.40;99.90
3792;DHT22;1911;53.768;11.474;2023-11-21T10:42:38;6.50;99.90
3792;DHT22;1911;53.768;11.474;2023-11-21T10:45:05;6.50;99.90
3792;DHT22;1911;53.768;11.474;2023-11-21T10:47:42;6.40;99.90
3792;DHT22;1911;53.768;11.474;2023-11-21T10:50:09;6.50;99.90
3792;DHT22;1911;53.768;11.474;2023-11-21T10:52:37;6.50;99.90
3792;DHT22;1911;53.768;11.474;2023-11-21T10:55:25;6.40;99.90
3792;DHT22;1911;53.768;11.474;2023-11-21T10:57:53;6.40;99.90
3792;DHT22;1911;53.768;11.474;2023-11-21T11:00:20;6.40;99.90
3792;DHT22;1911;53.768;11.474;2023-11-21T11:02:49;6.50;99.90
3792;DHT22;1911;53.768;11.474;2023-11-21T11:05:19;6.50;99.90
3792;DHT22;1911;53.768;11.474;2023-11-21T11:07:48;6.50;99.90
3792;DHT22;1911;53.768;11.474;2023-11-21T11:10:20;6.60;99.90
3792;DHT22;1911;53.768;11.474;2023-11-21T11:12:48;6.50;99.90
3792;DHT22;1911;53.768;11.474;2023-11-21T11:15:16;6.60;99.90
3792;DHT22;1911;53.768;11.474;2023-11-21T11:17:42;6.60;99.90
3792;DHT22;1911;53.768;11.474;2023-11-21T11:20:12;6.60;99.90
3792;DHT22;1911;53.768;11.474;2023-11-21T11:25:27;6.60;99.90
3792;DHT22;1911;53.768;11.474;2023-11-21T11:28:03;6.60;99.90
3792;DHT22;1911;53.768;11.474;2023-11-21T11:35:50;6.50;99.90
3792;DHT22;1911;53.768;11.474;2023-11-21T11:38:21;6.50;99.90
3792;DHT22;1911;53.768;11.474;2023-11-21T11:40:51;6.50;99.90
3792;DHT22;1911;53.768;11.474;2023-11-21T11:43:25;6.50;99.90
3792;DHT22;1911;53.768;11.474;2023-11-21T11:45:51;6.50;99.90
3792;DHT22;1911;53.768;11.474;2023-11-21T11:48:18;6.60;99.90
3792;DHT22;1911;53.768;11.474;2023-11-21T11:51:06;6.60;99.90
3792;DHT22;1911;53.768;11.474;2023-11-21T11:53:36;6.50;99.90
3792;DHT22;1911;53.768;11.474;2023-11-21T11:56:28;6.50;99.90
3792;DHT22;1911;53.768;11.474;2023-11-21T11:58:57;6.50;99.90
3792;DHT22;1911;53.768;11.474;2023-11-21T12:01:25;6.50;99.90
3792;DHT22;1911;53.768;11.474;2023-11-21T12:06:58;6.60;99.90
3792;DHT22;1911;53.768;11.474;2023-11-21T12:09:25;6.50;99.90
3792;DHT22;1911;53.768;11.474;2023-11-21T12:11:52;6.50;99.90
3792;DHT22;1911;53.768;11.474;2023-11-21T12:14:20;6.50;99.90
3792;DHT22;1911;53.768;11.474;2023-11-21T12:16:47;6.50;99.90
3792;DHT22;1911;53.768;11.474;2023-11-21T12:19:13;6.50;99.90
3792;DHT22;1911;53.768;11.474;2023-11-21T12:21:40;6.50;99.90
3792;DHT22;1911;53.768;11.474;2023-11-21T12:24:09;6.60;99.90
3792;DHT22;1911;53.768;11.474;2023-11-21T12:26:36;6.50;99.90
3792;DHT22;1911;53.768;11.474;2023-11-21T12:29:02;6.60;99.90
3792;DHT22;1911;53.768;11.474;2023-11-21T12:31:30;6.50;99.90
3792;DHT22;1911;53.768;11.474;2023-11-21T12:33:55;6.40;98.80
3792;DHT22;1911;53.768;11.474;2023-11-21T12:36:23;6.30;77.80
3792;DHT22;1911;53.768;11.474;2023-11-21T12:38:49;6.30;99.90
3792;DHT22;1911;53.768;11.474;2023-11-21T12:41:16;6.30;99.90
3792;DHT22;1911;53.768;11.474;2023-11-21T12:43:42;6.20;99.90
3792;DHT22;1911;53.768;11.474;2023-11-21T12:46:10;6.30;99.90
3792;DHT22;1911;53.768;11.474;2023-11-21T12:48:42;6.30;99.90
3792;DHT22;1911;53.768;11.474;2023-11-21T12:51:10;6.40;99.90
3792;DHT22;1911;53.768;11.474;2023-11-21T12:53:38;6.50;99.90
3792;DHT22;1911;53.768;11.474;2023-11-21T12:56:22;6.40;99.90
3792;DHT22;1911;53.768;11.474;2023-11-21T12:58:54;6.50;99.90
3792;DHT22;1911;53.768;11.474;2023-11-21T13:01:25;6.40;99.90
3792;DHT22;1911;53.768;11.474;2023-11-21T13:03:53;6.50;99.90
3792;DHT22;1911;53.768;11.474;2023-11-21T13:06:19;6.60;99.90
3792;DHT22;1911;53.768;11.474;2023-11-21T13:08:47;6.50;99.90
3792;DHT22;1911;53.768;11.474;2023-11-21T13:11:13;6.50;99.90
3792;DHT22;1911;53.768;11.474;2023-11-21T13:13:41;6.40;99.90
3792;DHT22;1911;53.768;11.474;2023-11-21T13:16:08;6.30;99.90
3792;DHT22;1911;53.768;11.474;2023-11-21T13:18:35;6.20;99.90
3792;DHT22;1911;53.768;11.474;2023-11-21T13:21:05;6.20;99.90
3792;DHT22;1911;53.768;11.474;2023-11-21T13:23:39;6.20;99.90
3792;DHT22;1911;53.768;11.474;2023-11-21T13:26:07;6.20;99.90
3792;DHT22;1911;53.768;11.474;2023-11-21T13:28:34;6.20;99.90
3792;DHT22;1911;53.768;11.474;2023-11-21T13:31:02;6.10;99.90
3792;DHT22;1911;53.768;11.474;2023-11-21T13:33:35;6.00;99.90
3792;DHT22;1911;53.768;11.474;2023-11-21T13:36:04;6.00;99.90
3792;DHT22;1911;53.768;11.474;2023-11-21T13:38:33;6.00;68.90
3792;DHT22;1911;53.768;11.474;2023-11-21T13:41:01;5.90;68.40
3792;DHT22;1911;53.768;11.474;2023-11-21T13:43:26;5.90;95.70
3792;DHT22;1911;53.768;11.474;2023-11-21T13:45:54;5.90;99.90
3792;DHT22;1911;53.768;11.474;2023-11-21T13:48:38;5.90;99.90
3792;DHT22;1911;53.768;11.474;2023-11-21T13:51:09;5.90;99.90
3792;DHT22;1911;53.768;11.474;2023-11-21T13:53:47;5.90;99.90
3792;DHT22;1911;53.768;11.474;2023-11-21T13:56:15;5.90;99.90
3792;DHT22;1911;53.768;11.474;2023-11-21T13:58:45;5.80;99.90
3792;DHT22;1911;53.768;11.474;2023-11-21T14:01:18;5.90;99.90
3792;DHT22;1911;53.768;11.474;2023-11-21T14:03:56;5.80;99.90
3792;DHT22;1911;53.768;11.474;2023-11-21T14:06:27;5.80;99.90
3792;DHT22;1911;53.768;11.474;2023-11-21T14:09:00;5.80;99.90
3792;DHT22;1911;53.768;11.474;2023-11-21T14:11:32;5.80;99.90
3792;DHT22;1911;53.768;11.474;2023-11-21T14:13:59;5.80;99.90
3792;DHT22;1911;53.768;11.474;2023-11-21T14:16:25;5.90;99.90
3792;DHT22;1911;53.768;11.474;2023-11-21T14:18:51;5.80;99.90
3792;DHT22;1911;53.768;11.474;2023-11-21T14:21:29;5.90;99.90
3792;DHT22;1911;53.768;11.474;2023-11-21T14:23:55;5.80;99.90
3792;DHT22;1911;53.768;11.474;2023-11-21T14:26:21;5.90;99.90
3792;DHT22;1911;53.768;11.474;2023-11-21T14:28:46;5.80;99.90
3792;DHT22;1911;53.768;11.474;2023-11-21T14:31:14;5.80;99.90
3792;DHT22;1911;53.768;11.474;2023-11-21T14:33:46;5.80;99.90
3792;DHT22;1911;53.768;11.474;2023-11-21T14:36:11;5.90;99.90
3792;DHT22;1911;53.768;11.474;2023-11-21T14:38:37;5.90;99.90
3792;DHT22;1911;53.768;11.474;2023-11-21T14:41:07;5.80;99.90
3792;DHT22;1911;53.768;11.474;2023-11-21T14:43:34;5.80;99.90
3792;DHT22;1911;53.768;11.474;2023-11-21T14:46:01;5.70;99.90
3792;DHT22;1911;53.768;11.474;2023-11-21T14:48:29;5.70;99.90
3792;DHT22;1911;53.768;11.474;2023-11-21T14:51:13;5.70;99.90
3792;DHT22;1911;53.768;11.474;2023-11-21T14:53:55;5.60;99.90
3792;DHT22;1911;53.768;11.474;2023-11-21T14:56:24;5.50;99.90
3792;DHT22;1911;53.768;11.474;2023-11-21T14:58:57;5.50;99.90
3792;DHT22;1911;53.768;11.474;2023-11-21T15:01:30;5.40;99.90
3792;DHT22;1911;53.768;11.474;2023-11-21T15:04:10;5.30;99.90
3792;DHT22;1911;53.768;11.474;2023-11-21T15:06:46;5.30;99.90
3792;DHT22;1911;53.768;11.474;2023-11-21T15:09:13;5.20;99.90
3792;DHT22;1911;53.768;11.474;2023-11-21T15:11:39;5.20;99.90
3792;DHT22;1911;53.768;11.474;2023-11-21T15:14:05;5.00;99.90
3792;DHT22;1911;53.768;11.474;2023-11-21T15:16:34;5.00;99.90
3792;DHT22;1911;53.768;11.474;2023-11-21T15:19:04;4.90;99.90
3792;DHT22;1911;53.768;11.474;2023-11-21T15:21:30;4.80;99.90
3792;DHT22;1911;53.768;11.474;2023-11-21T15:23:58;4.70;99.90
3792;DHT22;1911;53.768;11.474;2023-11-21T15:26:23;4.60;99.90
3792;DHT22;1911;53.768;11.474;2023-11-21T15:28:49;4.50;99.90
3792;DHT22;1911;53.768;11.474;2023-11-21T15:31:15;4.40;99.90
3792;DHT22;1911;53.768;11.474;2023-11-21T15:33:47;4.40;99.90
3792;DHT22;1911;53.768;11.474;2023-11-21T15:36:13;4.30;99.90
3792;DHT22;1911;53.768;11.474;2023-11-21T15:38:40;4.40;99.90
3792;DHT22;1911;53.768;11.474;2023-11-21T15:41:06;4.40;99.90
3792;DHT22;1911;53.768;11.474;2023-11-21T15:43:35;4.40;99.90
3792;DHT22;1911;53.768;11.474;2023-11-21T15:46:01;4.30;99.90
3792;DHT22;1911;53.768;11.474;2023-11-21T15:48:31;4.40;99.90
3792;DHT22;1911;53.768;11.474;2023-11-21T15:50:57;4.30;99.90
3792;DHT22;1911;53.768;11.474;2023-11-21T15:53:24;4.30;99.90
3792;DHT22;1911;53.768;11.474;2023-11-21T15:55:50;4.30;99.90
3792;DHT22;1911;53.768;11.474;2023-11-21T15:58:16;4.20;99.90
3792;DHT22;1911;53.768;11.474;2023-11-21T16:00:42;4.20;99.90
3792;DHT22;1911;53.768;11.474;2023-11-21T16:03:12;4.20;99.90
3792;DHT22;1911;53.768;11.474;2023-11-21T16:05:40;4.20;99.90
3792;DHT22;1911;53.768;11.474;2023-11-21T16:08:05;4.10;99.90
3792;DHT22;1911;53.768;11.474;2023-11-21T16:10:31;4.10;99.90
3792;DHT22;1911;53.768;11.474;2023-11-21T16:12:57;4.20;99.90
3792;DHT22;1911;53.768;11.474;2023-11-21T16:15:22;4.10;99.90
3792;DHT22;1911;53.768;11.474;2023-11-21T16:17:48;4.10;99.90